sensor_id;sensor_type;location;lat;lon;timestamp;pressure;altitude;pressure_sealevel;temperature;humidity
67377;BME280;54261;46.086;6.588;2024-01-30T00:01:44;93821.91;;;6.11;35.60
67377;BME280;54261;46.086;6.588;2024-01-30T00:06:46;93812.94;;;6.76;35.55
67377;BME280;54261;46.086;6.588;2024-01-30T00:11:48;93818.03;;;6.77;35.70
67377;BME280;54261;46.086;6.588;2024-01-30T00:16:51;93814.53;;;5.86;37.01
67377;BME280;54261;46.086;6.588;2024-01-30T00:21:53;93816.44;;;5.30;37.58
67377;BME280;54261;46.086;6.588;2024-01-30T00:26:55;93811.22;;;5.68;37.34
67377;BME280;54261;46.086;6.588;2024-01-30T00:31:57;93815.16;;;5.38;37.23
67377;BME280;54261;46.086;6.588;2024-01-30T00:36:59;93796.53;;;5.10;38.16
67377;BME280;54261;46.086;6.588;2024-01-30T00:42:01;93819.09;;;5.30;37.89
67377;BME280;54261;46.086;6.588;2024-01-30T00:47:04;93822.31;;;5.60;37.11
67377;BME280;54261;46.086;6.588;2024-01-30T00:52:06;93808.03;;;6.09;36.46
67377;BME280;54261;46.086;6.588;2024-01-30T00:57:08;93821.31;;;6.47;35.94
67377;BME280;54261;46.086;6.588;2024-01-30T01:02:10;93827.69;;;5.97;35.90
67377;BME280;54261;46.086;6.588;2024-01-30T01:07:12;93823.06;;;6.25;35.73
67377;BME280;54261;46.086;6.588;2024-01-30T01:12:14;93826.22;;;6.65;34.87
67377;BME280;54261;46.086;6.588;2024-01-30T01:17:16;93818.78;;;6.19;35.62
67377;BME280;54261;46.086;6.588;2024-01-30T01:22:20;93823.00;;;6.63;35.58
67377;BME280;54261;46.086;6.588;2024-01-30T01:27:22;93832.72;;;6.37;35.31
67377;BME280;54261;46.086;6.588;2024-01-30T01:32:23;93822.19;;;6.15;36.07
67377;BME280;54261;46.086;6.588;2024-01-30T01:37:26;93821.19;;;5.28;37.80
67377;BME280;54261;46.086;6.588;2024-01-30T01:42:28;93826.91;;;5.64;37.19
67377;BME280;54261;46.086;6.588;2024-01-30T01:47:31;93752.25;;;4.99;37.05
67377;BME280;54261;46.086;6.588;2024-01-30T01:52:33;93804.16;;;5.29;37.39
67377;BME280;54261;46.086;6.588;2024-01-30T01:57:36;93809.91;;;4.66;38.64
67377;BME280;54261;46.086;6.588;2024-01-30T02:02:38;93798.69;;;5.68;36.87
67377;BME280;54261;46.086;6.588;2024-01-30T02:07:41;93806.34;;;5.97;36.54
67377;BME280;54261;46.086;6.588;2024-01-30T02:12:43;93820.63;;;5.81;36.71
67377;BME280;54261;46.086;6.588;2024-01-30T02:17:45;93810.84;;;5.92;36.61
67377;BME280;54261;46.086;6.588;2024-01-30T02:22:48;93803.97;;;5.96;36.59
67377;BME280;54261;46.086;6.588;2024-01-30T02:27:50;93798.72;;;5.74;37.35
67377;BME280;54261;46.086;6.588;2024-01-30T02:32:52;93801.44;;;5.79;36.91
67377;BME280;54261;46.086;6.588;2024-01-30T02:37:54;93790.41;;;6.03;36.78
67377;BME280;54261;46.086;6.588;2024-01-30T02:42:58;93786.06;;;5.91;37.06
67377;BME280;54261;46.086;6.588;2024-01-30T02:48:00;93784.88;;;5.17;38.21
67377;BME280;54261;46.086;6.588;2024-01-30T02:53:02;93784.63;;;5.78;36.83
67377;BME280;54261;46.086;6.588;2024-01-30T02:58:04;93767.00;;;6.15;36.52
67377;BME280;54261;46.086;6.588;2024-01-30T03:03:06;93769.72;;;5.45;37.71
67377;BME280;54261;46.086;6.588;2024-01-30T03:08:08;93782.78;;;5.79;37.55
67377;BME280;54261;46.086;6.588;2024-01-30T03:13:10;93777.75;;;5.82;36.15
67377;BME280;54261;46.086;6.588;2024-01-30T03:18:12;93761.59;;;6.00;36.34
67377;BME280;54261;46.086;6.588;2024-01-30T03:23:14;93789.06;;;6.48;35.68
67377;BME280;54261;46.086;6.588;2024-01-30T03:28:16;93766.22;;;6.15;36.43
67377;BME280;54261;46.086;6.588;2024-01-30T03:33:18;93769.75;;;6.25;35.53
67377;BME280;54261;46.086;6.588;2024-01-30T03:38:20;93772.25;;;6.48;36.08
67377;BME280;54261;46.086;6.588;2024-01-30T03:43:22;93781.84;;;6.44;35.46
67377;BME280;54261;46.086;6.588;2024-01-30T03:48:24;93776.56;;;6.54;35.23
67377;BME280;54261;46.086;6.588;2024-01-30T03:53:27;93779.63;;;6.84;34.18
67377;BME280;54261;46.086;6.588;2024-01-30T03:58:29;93765.75;;;6.97;34.02
67377;BME280;54261;46.086;6.588;2024-01-30T04:03:31;93769.72;;;6.20;35.02
67377;BME280;54261;46.086;6.588;2024-01-30T04:08:33;93774.19;;;6.63;34.88
67377;BME280;54261;46.086;6.588;2024-01-30T04:13:35;93788.75;;;6.98;34.44
67377;BME280;54261;46.086;6.588;2024-01-30T04:18:37;93770.88;;;7.09;33.79
67377;BME280;54261;46.086;6.588;2024-01-30T04:23:40;93777.78;;;7.00;34.54
67377;BME280;54261;46.086;6.588;2024-01-30T04:28:44;93756.59;;;6.67;33.48
67377;BME280;54261;46.086;6.588;2024-01-30T04:33:46;93737.34;;;5.96;35.11
67377;BME280;54261;46.086;6.588;2024-01-30T04:38:48;93771.69;;;5.92;35.22
67377;BME280;54261;46.086;6.588;2024-01-30T04:43:50;93757.88;;;6.01;35.88
67377;BME280;54261;46.086;6.588;2024-01-30T04:48:52;93784.13;;;6.73;34.31
67377;BME280;54261;46.086;6.588;2024-01-30T04:53:54;93758.94;;;6.53;33.99
67377;BME280;54261;46.086;6.588;2024-01-30T04:58:56;93780.84;;;6.12;35.05
67377;BME280;54261;46.086;6.588;2024-01-30T05:03:58;93801.88;;;6.08;35.20
67377;BME280;54261;46.086;6.588;2024-01-30T05:09:00;93804.56;;;6.57;33.84
67377;BME280;54261;46.086;6.588;2024-01-30T05:14:02;93794.47;;;6.64;33.77
67377;BME280;54261;46.086;6.588;2024-01-30T05:19:04;93799.91;;;6.31;34.12
67377;BME280;54261;46.086;6.588;2024-01-30T05:24:07;93804.88;;;5.79;35.32
67377;BME280;54261;46.086;6.588;2024-01-30T05:29:11;93800.13;;;5.49;35.20
67377;BME280;54261;46.086;6.588;2024-01-30T05:34:13;93817.56;;;5.34;35.82
67377;BME280;54261;46.086;6.588;2024-01-30T05:39:15;93801.25;;;5.58;36.05
67377;BME280;54261;46.086;6.588;2024-01-30T05:44:17;93819.22;;;5.68;35.27
67377;BME280;54261;46.086;6.588;2024-01-30T05:49:19;93822.88;;;5.94;34.63
67377;BME280;54261;46.086;6.588;2024-01-30T05:54:21;93826.28;;;5.90;35.46
67377;BME280;54261;46.086;6.588;2024-01-30T05:59:23;93824.38;;;5.85;35.89
67377;BME280;54261;46.086;6.588;2024-01-30T06:04:25;93826.16;;;6.07;35.12
67377;BME280;54261;46.086;6.588;2024-01-30T06:09:27;93784.78;;;5.99;35.11
67377;BME280;54261;46.086;6.588;2024-01-30T06:14:30;93819.41;;;5.61;35.26
67377;BME280;54261;46.086;6.588;2024-01-30T06:19:32;93838.97;;;5.22;36.89
67377;BME280;54261;46.086;6.588;2024-01-30T06:24:34;93843.03;;;5.52;35.29
67377;BME280;54261;46.086;6.588;2024-01-30T06:29:36;93835.47;;;5.72;35.55
67377;BME280;54261;46.086;6.588;2024-01-30T06:34:38;93843.72;;;5.15;36.52
67377;BME280;54261;46.086;6.588;2024-01-30T06:39:42;93852.16;;;5.62;36.15
67377;BME280;54261;46.086;6.588;2024-01-30T06:44:44;93846.47;;;5.48;35.68
67377;BME280;54261;46.086;6.588;2024-01-30T06:49:45;93850.91;;;4.92;36.60
67377;BME280;54261;46.086;6.588;2024-01-30T06:54:47;93851.69;;;4.93;36.40
67377;BME280;54261;46.086;6.588;2024-01-30T06:59:49;93856.16;;;5.37;36.24
67377;BME280;54261;46.086;6.588;2024-01-30T07:04:51;93860.84;;;5.02;36.95
67377;BME280;54261;46.086;6.588;2024-01-30T07:09:54;93859.25;;;5.01;36.73
67377;BME280;54261;46.086;6.588;2024-01-30T07:14:59;93868.91;;;5.35;36.63
67377;BME280;54261;46.086;6.588;2024-01-30T07:20:02;93875.19;;;5.73;35.88
67377;BME280;54261;46.086;6.588;2024-01-30T07:25:06;93884.56;;;5.53;36.56
67377;BME280;54261;46.086;6.588;2024-01-30T07:30:08;93887.19;;;6.08;36.26
67377;BME280;54261;46.086;6.588;2024-01-30T07:35:10;93890.69;;;6.14;35.61
67377;BME280;54261;46.086;6.588;2024-01-30T07:40:13;93889.88;;;6.51;35.35
67377;BME280;54261;46.086;6.588;2024-01-30T07:45:15;93899.69;;;6.78;34.42
67377;BME280;54261;46.086;6.588;2024-01-30T07:50:17;93897.91;;;7.00;34.28
67377;BME280;54261;46.086;6.588;2024-01-30T07:55:21;93889.56;;;6.43;35.32
67377;BME280;54261;46.086;6.588;2024-01-30T08:00:26;93901.81;;;6.81;34.68
67377;BME280;54261;46.086;6.588;2024-01-30T08:05:29;93892.88;;;7.08;34.02
67377;BME280;54261;46.086;6.588;2024-01-30T08:10:31;93894.22;;;7.06;35.30
67377;BME280;54261;46.086;6.588;2024-01-30T08:15:33;93899.69;;;7.47;35.24
67377;BME280;54261;46.086;6.588;2024-01-30T08:20:35;93901.06;;;7.76;34.02
67377;BME280;54261;46.086;6.588;2024-01-30T08:25:37;93907.31;;;8.18;33.71
67377;BME280;54261;46.086;6.588;2024-01-30T08:30:39;93901.69;;;8.35;32.83
67377;BME280;54261;46.086;6.588;2024-01-30T08:35:41;93901.94;;;8.54;32.21
67377;BME280;54261;46.086;6.588;2024-01-30T08:40:44;93903.25;;;8.67;32.23
67377;BME280;54261;46.086;6.588;2024-01-30T08:45:46;93900.03;;;7.82;33.01
67377;BME280;54261;46.086;6.588;2024-01-30T08:50:48;93907.50;;;8.73;32.14
67377;BME280;54261;46.086;6.588;2024-01-30T08:55:50;93917.59;;;9.13;31.44
67377;BME280;54261;46.086;6.588;2024-01-30T09:00:52;93925.56;;;9.33;30.71
67377;BME280;54261;46.086;6.588;2024-01-30T09:05:54;93908.13;;;9.41;30.42
67377;BME280;54261;46.086;6.588;2024-01-30T09:10:56;93906.75;;;9.49;30.16
67377;BME280;54261;46.086;6.588;2024-01-30T09:15:58;93918.16;;;9.70;30.22
67377;BME280;54261;46.086;6.588;2024-01-30T09:21:00;93900.44;;;9.19;30.39
67377;BME280;54261;46.086;6.588;2024-01-30T09:26:02;93899.06;;;5.40;35.86
67377;BME280;54261;46.086;6.588;2024-01-30T09:31:09;93906.94;;;7.73;33.10
67377;BME280;54261;46.086;6.588;2024-01-30T09:36:11;93909.47;;;7.16;33.72
67377;BME280;54261;46.086;6.588;2024-01-30T09:41:14;93915.47;;;4.65;37.09
67377;BME280;54261;46.086;6.588;2024-01-30T09:46:17;93905.91;;;3.96;37.65
67377;BME280;54261;46.086;6.588;2024-01-30T09:51:20;93916.09;;;3.70;39.39
67377;BME280;54261;46.086;6.588;2024-01-30T09:56:22;93926.16;;;3.68;39.83
67377;BME280;54261;46.086;6.588;2024-01-30T10:01:25;93914.38;;;4.27;37.86
67377;BME280;54261;46.086;6.588;2024-01-30T10:06:27;93928.63;;;4.04;37.53
67377;BME280;54261;46.086;6.588;2024-01-30T10:11:30;93947.91;;;5.74;36.31
67377;BME280;54261;46.086;6.588;2024-01-30T10:16:32;93923.75;;;6.84;34.82
67377;BME280;54261;46.086;6.588;2024-01-30T10:21:34;93949.09;;;7.50;34.32
67377;BME280;54261;46.086;6.588;2024-01-30T10:26:38;93953.69;;;6.25;35.81
67377;BME280;54261;46.086;6.588;2024-01-30T10:31:40;93947.09;;;5.06;36.65
67377;BME280;54261;46.086;6.588;2024-01-30T10:36:46;93951.41;;;6.72;34.42
67377;BME280;54261;46.086;6.588;2024-01-30T10:41:55;93943.81;;;2.92;44.40
67377;BME280;54261;46.086;6.588;2024-01-30T10:47:00;93951.00;;;2.44;45.91
67377;BME280;54261;46.086;6.588;2024-01-30T10:52:05;93951.94;;;2.62;45.16
67377;BME280;54261;46.086;6.588;2024-01-30T10:57:10;93960.13;;;1.51;46.42
67377;BME280;54261;46.086;6.588;2024-01-30T11:02:13;93957.22;;;1.83;45.26
67377;BME280;54261;46.086;6.588;2024-01-30T11:07:16;93956.47;;;2.07;45.14
67377;BME280;54261;46.086;6.588;2024-01-30T11:12:23;93939.94;;;3.99;42.39
67377;BME280;54261;46.086;6.588;2024-01-30T11:17:27;93945.22;;;5.96;40.69
67377;BME280;54261;46.086;6.588;2024-01-30T11:22:30;93936.50;;;3.98;42.23
67377;BME280;54261;46.086;6.588;2024-01-30T11:27:32;93925.88;;;3.52;43.80
67377;BME280;54261;46.086;6.588;2024-01-30T11:32:35;93923.75;;;3.37;43.88
67377;BME280;54261;46.086;6.588;2024-01-30T11:37:37;93920.22;;;4.63;42.37
67377;BME280;54261;46.086;6.588;2024-01-30T11:42:42;93897.47;;;4.33;42.07
67377;BME280;54261;46.086;6.588;2024-01-30T11:47:44;93902.19;;;4.88;43.36
67377;BME280;54261;46.086;6.588;2024-01-30T11:52:50;93911.09;;;4.98;43.91
67377;BME280;54261;46.086;6.588;2024-01-30T11:57:55;93912.50;;;4.84;42.50
67377;BME280;54261;46.086;6.588;2024-01-30T12:02:57;93911.47;;;5.79;39.89
67377;BME280;54261;46.086;6.588;2024-01-30T12:08:00;93910.22;;;6.58;38.44
67377;BME280;54261;46.086;6.588;2024-01-30T12:13:04;93903.06;;;5.16;42.51
67377;BME280;54261;46.086;6.588;2024-01-30T12:18:07;93899.78;;;4.47;44.67
67377;BME280;54261;46.086;6.588;2024-01-30T12:23:12;93898.84;;;5.42;42.79
67377;BME280;54261;46.086;6.588;2024-01-30T12:28:14;93903.88;;;4.54;43.69
67377;BME280;54261;46.086;6.588;2024-01-30T12:33:17;93875.22;;;6.11;42.61
67377;BME280;54261;46.086;6.588;2024-01-30T12:38:24;93861.38;;;6.52;41.34
67377;BME280;54261;46.086;6.588;2024-01-30T12:43:26;93893.53;;;8.87;35.90
67377;BME280;54261;46.086;6.588;2024-01-30T12:48:39;93886.34;;;7.47;37.50
67377;BME280;54261;46.086;6.588;2024-01-30T12:53:41;93875.16;;;4.96;42.06
67377;BME280;54261;46.086;6.588;2024-01-30T12:58:43;93883.06;;;6.28;40.36
67377;BME280;54261;46.086;6.588;2024-01-30T13:03:49;93882.63;;;5.44;41.67
67377;BME280;54261;46.086;6.588;2024-01-30T13:08:51;93875.66;;;5.97;41.16
67377;BME280;54261;46.086;6.588;2024-01-30T13:13:52;93880.63;;;7.18;38.27
67377;BME280;54261;46.086;6.588;2024-01-30T13:18:55;93875.00;;;9.67;34.79
67377;BME280;54261;46.086;6.588;2024-01-30T13:23:57;93872.00;;;6.95;38.29
67377;BME280;54261;46.086;6.588;2024-01-30T13:28:59;93879.69;;;8.64;36.22
67377;BME280;54261;46.086;6.588;2024-01-30T13:34:01;93873.41;;;9.15;35.41
67377;BME280;54261;46.086;6.588;2024-01-30T13:39:05;93861.22;;;9.39;34.57
67377;BME280;54261;46.086;6.588;2024-01-30T13:44:11;93870.84;;;7.49;37.64
67377;BME280;54261;46.086;6.588;2024-01-30T13:49:13;93863.84;;;7.22;38.37
67377;BME280;54261;46.086;6.588;2024-01-30T13:54:15;93876.81;;;10.51;34.48
67377;BME280;54261;46.086;6.588;2024-01-30T13:59:17;93876.75;;;12.11;31.49
67377;BME280;54261;46.086;6.588;2024-01-30T14:04:25;93874.91;;;11.93;31.46
67377;BME280;54261;46.086;6.588;2024-01-30T14:09:27;93863.66;;;12.05;30.35
67377;BME280;54261;46.086;6.588;2024-01-30T14:14:29;93876.69;;;8.86;34.53
67377;BME280;54261;46.086;6.588;2024-01-30T14:19:31;93866.22;;;7.19;38.44
67377;BME280;54261;46.086;6.588;2024-01-30T14:24:33;93856.09;;;7.36;38.97
67377;BME280;54261;46.086;6.588;2024-01-30T14:29:35;93851.13;;;9.70;34.18
67377;BME280;54261;46.086;6.588;2024-01-30T14:34:37;93844.34;;;10.47;33.46
67377;BME280;54261;46.086;6.588;2024-01-30T14:39:39;93855.69;;;10.10;33.50
67377;BME280;54261;46.086;6.588;2024-01-30T14:44:42;93861.69;;;9.96;34.88
67377;BME280;54261;46.086;6.588;2024-01-30T14:49:44;93853.03;;;10.39;34.54
67377;BME280;54261;46.086;6.588;2024-01-30T14:54:46;93819.44;;;12.44;31.08
67377;BME280;54261;46.086;6.588;2024-01-30T14:59:48;93849.94;;;12.06;31.79
67377;BME280;54261;46.086;6.588;2024-01-30T15:04:50;93857.25;;;11.43;31.23
67377;BME280;54261;46.086;6.588;2024-01-30T15:09:53;93868.78;;;8.29;36.76
67377;BME280;54261;46.086;6.588;2024-01-30T15:14:55;93868.72;;;7.62;37.88
67377;BME280;54261;46.086;6.588;2024-01-30T15:19:57;93859.91;;;7.56;37.28
67377;BME280;54261;46.086;6.588;2024-01-30T15:25:00;93870.91;;;7.96;36.90
67377;BME280;54261;46.086;6.588;2024-01-30T15:30:02;93871.41;;;8.60;35.97
67377;BME280;54261;46.086;6.588;2024-01-30T15:35:05;93862.47;;;9.06;34.82
67377;BME280;54261;46.086;6.588;2024-01-30T15:40:08;93863.16;;;8.31;36.23
67377;BME280;54261;46.086;6.588;2024-01-30T15:45:10;93875.06;;;10.36;34.29
67377;BME280;54261;46.086;6.588;2024-01-30T15:50:12;93877.66;;;11.00;32.16
67377;BME280;54261;46.086;6.588;2024-01-30T15:55:14;93883.66;;;11.60;31.05
67377;BME280;54261;46.086;6.588;2024-01-30T16:00:17;93893.34;;;10.64;32.21
67377;BME280;54261;46.086;6.588;2024-01-30T16:05:19;93883.44;;;12.47;30.76
67377;BME280;54261;46.086;6.588;2024-01-30T16:10:21;93889.09;;;12.65;29.43
67377;BME280;54261;46.086;6.588;2024-01-30T16:15:23;93893.66;;;12.97;29.72
67377;BME280;54261;46.086;6.588;2024-01-30T16:20:26;93892.84;;;12.16;30.79
67377;BME280;54261;46.086;6.588;2024-01-30T16:25:29;93882.66;;;11.56;30.81
67377;BME280;54261;46.086;6.588;2024-01-30T16:30:31;93897.81;;;11.46;30.65
67377;BME280;54261;46.086;6.588;2024-01-30T16:35:33;93894.06;;;10.45;30.88
67377;BME280;54261;46.086;6.588;2024-01-30T16:40:47;93895.63;;;10.75;29.77
67377;BME280;54261;46.086;6.588;2024-01-30T16:45:49;93918.94;;;10.51;30.51
67377;BME280;54261;46.086;6.588;2024-01-30T16:50:52;93923.03;;;10.08;31.30
67377;BME280;54261;46.086;6.588;2024-01-30T16:55:54;93931.41;;;9.96;31.88
67377;BME280;54261;46.086;6.588;2024-01-30T17:00:56;93941.03;;;10.42;31.09
67377;BME280;54261;46.086;6.588;2024-01-30T17:05:58;93952.22;;;11.14;29.93
67377;BME280;54261;46.086;6.588;2024-01-30T17:11:06;93943.59;;;11.41;29.59
67377;BME280;54261;46.086;6.588;2024-01-30T17:16:08;93956.66;;;11.48;29.46
67377;BME280;54261;46.086;6.588;2024-01-30T17:21:18;93966.59;;;10.99;30.14
67377;BME280;54261;46.086;6.588;2024-01-30T17:26:20;93969.69;;;10.82;30.04
67377;BME280;54261;46.086;6.588;2024-01-30T17:31:23;93951.88;;;10.61;29.88
67377;BME280;54261;46.086;6.588;2024-01-30T17:36:25;93963.97;;;10.24;29.70
67377;BME280;54261;46.086;6.588;2024-01-30T17:41:27;93952.22;;;8.68;33.52
67377;BME280;54261;46.086;6.588;2024-01-30T17:46:29;93963.47;;;8.28;34.16
67377;BME280;54261;46.086;6.588;2024-01-30T17:51:32;93961.88;;;7.37;35.64
67377;BME280;54261;46.086;6.588;2024-01-30T17:56:34;93979.50;;;8.18;34.42
67377;BME280;54261;46.086;6.588;2024-01-30T18:01:36;93978.69;;;8.17;33.21
67377;BME280;54261;46.086;6.588;2024-01-30T18:06:38;93950.88;;;8.55;32.39
67377;BME280;54261;46.086;6.588;2024-01-30T18:11:40;93980.59;;;8.32;33.51
67377;BME280;54261;46.086;6.588;2024-01-30T18:16:42;93967.16;;;7.96;33.42
67377;BME280;54261;46.086;6.588;2024-01-30T18:21:44;93985.69;;;8.65;32.39
67377;BME280;54261;46.086;6.588;2024-01-30T18:26:46;93986.16;;;8.98;31.29
67377;BME280;54261;46.086;6.588;2024-01-30T18:31:48;93992.88;;;8.96;31.23
67377;BME280;54261;46.086;6.588;2024-01-30T18:36:50;93966.91;;;8.03;32.54
67377;BME280;54261;46.086;6.588;2024-01-30T18:41:52;93989.25;;;7.76;32.50
67377;BME280;54261;46.086;6.588;2024-01-30T18:46:54;93989.13;;;8.40;30.34
67377;BME280;54261;46.086;6.588;2024-01-30T18:51:56;93993.44;;;8.56;29.87
67377;BME280;54261;46.086;6.588;2024-01-30T18:57:00;93986.44;;;8.91;28.91
67377;BME280;54261;46.086;6.588;2024-01-30T19:02:02;93989.13;;;9.02;28.95
67377;BME280;54261;46.086;6.588;2024-01-30T19:07:04;93987.75;;;8.01;29.51
67377;BME280;54261;46.086;6.588;2024-01-30T19:12:06;93999.03;;;8.70;28.18
67377;BME280;54261;46.086;6.588;2024-01-30T19:17:08;93996.13;;;8.41;29.79
67377;BME280;54261;46.086;6.588;2024-01-30T19:22:10;93988.38;;;7.49;31.52
67377;BME280;54261;46.086;6.588;2024-01-30T19:27:12;93994.72;;;7.97;31.04
67377;BME280;54261;46.086;6.588;2024-01-30T19:32:14;94004.91;;;8.10;30.98
67377;BME280;54261;46.086;6.588;2024-01-30T19:37:16;93994.28;;;7.57;31.58
67377;BME280;54261;46.086;6.588;2024-01-30T19:42:18;94000.19;;;7.10;31.56
67377;BME280;54261;46.086;6.588;2024-01-30T19:47:20;94005.31;;;6.14;33.93
67377;BME280;54261;46.086;6.588;2024-01-30T19:52:22;94018.22;;;6.88;32.92
67377;BME280;54261;46.086;6.588;2024-01-30T19:57:24;94014.81;;;7.41;32.11
67377;BME280;54261;46.086;6.588;2024-01-30T20:02:26;94008.75;;;7.71;31.19
67377;BME280;54261;46.086;6.588;2024-01-30T20:07:29;94006.41;;;7.85;31.10
67377;BME280;54261;46.086;6.588;2024-01-30T20:12:31;93999.03;;;7.44;31.00
67377;BME280;54261;46.086;6.588;2024-01-30T20:17:33;93990.00;;;7.56;31.37
67377;BME280;54261;46.086;6.588;2024-01-30T20:22:35;93981.44;;;7.54;30.65
67377;BME280;54261;46.086;6.588;2024-01-30T20:27:37;93996.75;;;7.15;30.62
67377;BME280;54261;46.086;6.588;2024-01-30T20:32:39;93976.28;;;7.36;30.08
67377;BME280;54261;46.086;6.588;2024-01-30T20:37:41;94010.25;;;6.00;31.82
67377;BME280;54261;46.086;6.588;2024-01-30T20:42:43;94011.16;;;7.09;31.07
67377;BME280;54261;46.086;6.588;2024-01-30T20:47:45;94004.97;;;6.05;31.74
67377;BME280;54261;46.086;6.588;2024-01-30T20:52:48;94019.66;;;6.08;31.97
67377;BME280;54261;46.086;6.588;2024-01-30T20:57:49;94031.78;;;6.81;31.83
67377;BME280;54261;46.086;6.588;2024-01-30T21:02:52;94017.56;;;7.08;31.07
67377;BME280;54261;46.086;6.588;2024-01-30T21:07:55;94024.22;;;7.10;31.24
67377;BME280;54261;46.086;6.588;2024-01-30T21:12:57;94015.59;;;7.41;31.20
67377;BME280;54261;46.086;6.588;2024-01-30T21:17:59;94013.16;;;7.34;31.50
67377;BME280;54261;46.086;6.588;2024-01-30T21:23:01;93947.38;;;6.70;31.35
67377;BME280;54261;46.086;6.588;2024-01-30T21:28:03;94024.22;;;7.10;31.98
67377;BME280;54261;46.086;6.588;2024-01-30T21:33:05;94013.91;;;5.66;32.99
67377;BME280;54261;46.086;6.588;2024-01-30T21:38:07;93992.75;;;6.42;31.77
67377;BME280;54261;46.086;6.588;2024-01-30T21:43:09;94033.69;;;6.86;30.95
67377;BME280;54261;46.086;6.588;2024-01-30T21:48:11;94030.53;;;6.94;30.73
67377;BME280;54261;46.086;6.588;2024-01-30T21:53:13;94034.44;;;7.19;30.72
67377;BME280;54261;46.086;6.588;2024-01-30T21:58:15;94032.00;;;7.17;30.65
67377;BME280;54261;46.086;6.588;2024-01-30T22:03:17;94028.94;;;7.41;30.74
67377;BME280;54261;46.086;6.588;2024-01-30T22:08:19;94037.47;;;6.95;30.87
67377;BME280;54261;46.086;6.588;2024-01-30T22:13:21;94020.22;;;7.56;30.58
67377;BME280;54261;46.086;6.588;2024-01-30T22:18:24;94031.47;;;6.72;31.53
67377;BME280;54261;46.086;6.588;2024-01-30T22:23:26;94021.44;;;6.90;31.87
67377;BME280;54261;46.086;6.588;2024-01-30T22:28:28;94001.25;;;6.06;33.06
67377;BME280;54261;46.086;6.588;2024-01-30T22:33:30;94017.97;;;6.57;32.00
67377;BME280;54261;46.086;6.588;2024-01-30T22:38:32;93995.56;;;6.25;32.51
67377;BME280;54261;46.086;6.588;2024-01-30T22:43:34;94015.03;;;6.91;32.69
67377;BME280;54261;46.086;6.588;2024-01-30T22:48:36;94022.47;;;6.84;32.26
67377;BME280;54261;46.086;6.588;2024-01-30T22:53:38;94032.50;;;6.38;32.81
67377;BME280;54261;46.086;6.588;2024-01-30T22:58:41;94010.00;;;6.29;31.82
67377;BME280;54261;46.086;6.588;2024-01-30T23:03:43;93992.47;;;6.06;33.12
67377;BME280;54261;46.086;6.588;2024-01-30T23:08:45;94038.06;;;6.70;32.10
67377;BME280;54261;46.086;6.588;2024-01-30T23:13:47;94027.41;;;6.37;32.96
67377;BME280;54261;46.086;6.588;2024-01-30T23:18:49;94022.69;;;6.44;32.24
67377;BME280;54261;46.086;6.588;2024-01-30T23:23:52;94037.13;;;6.53;32.22
67377;BME280;54261;46.086;6.588;2024-01-30T23:28:54;94023.59;;;6.60;32.08
67377;BME280;54261;46.086;6.588;2024-01-30T23:33:56;94021.41;;;6.24;31.54
67377;BME280;54261;46.086;6.588;2024-01-30T23:38:58;94020.47;;;6.36;32.38
67377;BME280;54261;46.086;6.588;2024-01-30T23:44:00;94019.66;;;5.19;33.31
67377;BME280;54261;46.086;6.588;2024-01-30T23:49:02;94030.91;;;5.43;33.36
67377;BME280;54261;46.086;6.588;2024-01-30T23:54:04;94029.16;;;5.09;34.34
67377;BME280;54261;46.086;6.588;2024-01-30T23:59:07;94035.59;;;5.53;33.53
